Time;durP1;ratioP1;P1;durP2;ratioP2;P2;SDS_P1;SDS_P2;PMS_P1;PMS_P2;Temp;Humidity;BMP_temperature;BMP_pressure;BME280_temperature;BME280_humidity;BME280_pressure;Samples;Min_cycle;Max_cycle;Signal;HPM_P1;HPM_P2
2023/08/01 00:00:18;;;;;;;1.00;0.80;;;24.20;99.50;;;;;;4936242;29;20470;-88
2023/08/01 00:02:45;;;;;;;1.20;0.80;;;24.20;99.50;;;;;;4936481;29;20489;-89
2023/08/01 00:05:11;;;;;;;1.20;0.90;;;24.20;99.40;;;;;;4936437;29;20824;-88
2023/08/01 00:07:38;;;;;;;1.10;0.90;;;24.20;99.30;;;;;;4935875;29;20464;-88
2023/08/01 00:10:08;;;;;;;1.10;0.90;;;24.20;99.40;;;;;;4937003;29;20465;-94
2023/08/01 00:12:35;;;;;;;1.10;0.73;;;24.20;99.60;;;;;;4938616;29;20454;-89
2023/08/01 00:15:02;;;;;;;1.40;1.10;;;24.20;99.50;;;;;;4936129;29;20448;-90
2023/08/01 00:17:29;;;;;;;1.50;1.33;;;24.20;99.80;;;;;;4936521;29;20453;-90
2023/08/01 00:19:55;;;;;;;1.40;1.00;;;24.20;99.50;;;;;;4936143;29;20453;-90
2023/08/01 00:22:22;;;;;;;1.10;0.90;;;24.20;99.50;;;;;;4935952;29;20954;-90
2023/08/01 00:24:49;;;;;;;1.10;0.90;;;24.20;99.40;;;;;;4935841;29;20460;-90
2023/08/01 00:27:17;;;;;;;1.10;1.00;;;24.10;99.50;;;;;;4936607;29;20455;-90
2023/08/01 00:29:44;;;;;;;1.00;0.80;;;24.10;99.30;;;;;;4935904;29;21007;-90
2023/08/01 00:32:11;;;;;;;1.10;0.80;;;24.10;99.20;;;;;;4936220;29;20449;-90
2023/08/01 00:34:38;;;;;;;1.10;0.87;;;24.20;99.50;;;;;;4935883;29;20471;-91
2023/08/01 00:37:05;;;;;;;1.13;1.00;;;24.10;99.40;;;;;;4936215;29;20454;-90
2023/08/01 00:39:32;;;;;;;1.10;0.87;;;24.10;99.30;;;;;;4935858;29;20468;-91
2023/08/01 00:41:59;;;;;;;1.30;0.90;;;24.10;99.40;;;;;;4935911;29;20444;-90
2023/08/01 00:44:27;;;;;;;1.00;0.80;;;24.10;99.30;;;;;;4935495;29;21027;-90
2023/08/01 00:46:55;;;;;;;0.90;0.70;;;24.10;99.10;;;;;;4935928;29;20456;-90
2023/08/01 00:49:21;;;;;;;1.20;0.93;;;24.10;99.20;;;;;;4935872;29;20457;-90
2023/08/01 00:51:49;;;;;;;1.10;0.90;;;24.10;99.20;;;;;;4935821;29;20470;-90
2023/08/01 00:54:16;;;;;;;1.20;0.90;;;24.10;99.30;;;;;;4936092;29;20443;-90
2023/08/01 00:56:44;;;;;;;1.10;0.80;;;24.10;99.10;;;;;;4937211;29;20446;-90
2023/08/01 00:59:12;;;;;;;1.00;0.80;;;24.10;99.10;;;;;;4939725;29;20459;-90
2023/08/01 01:01:40;;;;;;;1.10;0.70;;;24.10;99.20;;;;;;4939329;29;20453;-90
2023/08/01 01:04:09;;;;;;;1.00;0.80;;;24.10;99.20;;;;;;4939207;29;20494;-90
2023/08/01 01:06:43;;;;;;;1.10;0.83;;;24.10;99.20;;;;;;4939277;29;20472;-90
2023/08/01 01:09:17;;;;;;;1.20;1.00;;;24.10;99.10;;;;;;4939463;29;20452;-90
2023/08/01 01:11:44;;;;;;;1.10;0.80;;;24.10;99.10;;;;;;4939360;29;20444;-90
2023/08/01 01:14:11;;;;;;;1.10;0.90;;;24.20;99.40;;;;;;4939219;29;20451;-91
2023/08/01 01:16:38;;;;;;;1.20;0.90;;;24.10;99.30;;;;;;4939372;29;20450;-90
2023/08/01 01:19:08;;;;;;;1.07;0.97;;;24.10;99.20;;;;;;4939300;29;20450;-90
2023/08/01 01:21:39;;;;;;;1.10;0.90;;;24.10;99.10;;;;;;4957767;29;20442;-90
2023/08/01 01:24:08;;;;;;;2.63;1.10;;;24.10;99.10;;;;;;4958155;29;20485;-90
2023/08/01 01:26:36;;;;;;;1.10;0.90;;;24.10;99.10;;;;;;4958233;29;20460;-90
2023/08/01 01:29:05;;;;;;;1.30;0.87;;;24.20;99.10;;;;;;4958710;29;20450;-90
2023/08/01 01:31:32;;;;;;;1.10;0.90;;;24.10;99.10;;;;;;4958072;29;20969;-90
2023/08/01 01:33:59;;;;;;;1.10;0.80;;;24.10;99.10;;;;;;4958195;29;20447;-90
2023/08/01 01:36:26;;;;;;;1.20;0.90;;;24.10;99.10;;;;;;4958235;28;20479;-90
2023/08/01 01:38:54;;;;;;;1.00;0.80;;;24.10;99.10;;;;;;4958034;29;20542;-90
2023/08/01 01:41:22;;;;;;;1.10;0.90;;;24.10;99.20;;;;;;4942724;29;20463;-90
2023/08/01 01:43:49;;;;;;;1.27;1.00;;;24.10;99.50;;;;;;4938741;29;20617;-90
2023/08/01 01:46:15;;;;;;;1.00;0.80;;;24.20;99.20;;;;;;4938777;29;20535;-91
2023/08/01 01:48:43;;;;;;;2.40;1.00;;;24.10;99.20;;;;;;4938859;29;20444;-90
2023/08/01 01:51:09;;;;;;;1.20;0.80;;;24.10;99.20;;;;;;4938836;29;20458;-90
2023/08/01 01:53:36;;;;;;;1.30;1.00;;;24.10;99.50;;;;;;4938427;29;20480;-90
2023/08/01 01:56:05;;;;;;;1.10;0.90;;;24.10;99.20;;;;;;4938301;29;20451;-90
2023/08/01 01:58:31;;;;;;;1.00;0.80;;;24.10;99.20;;;;;;4938418;29;20449;-90
2023/08/01 02:00:58;;;;;;;1.10;0.93;;;24.10;99.10;;;;;;4938634;29;20447;-90
2023/08/01 02:03:25;;;;;;;1.00;0.80;;;24.10;99.20;;;;;;4938635;29;20498;-90
2023/08/01 02:05:52;;;;;;;1.33;1.00;;;24.00;99.10;;;;;;4938343;29;20467;-90
2023/08/01 02:08:18;;;;;;;1.20;0.90;;;24.10;99.20;;;;;;4938328;29;20811;-90
2023/08/01 02:10:45;;;;;;;1.10;1.00;;;24.10;99.20;;;;;;4938330;29;20539;-90
2023/08/01 02:13:13;;;;;;;1.00;0.80;;;24.00;99.10;;;;;;4938147;29;20448;-89
2023/08/01 02:15:40;;;;;;;1.10;0.80;;;24.10;99.20;;;;;;4938081;29;20448;-90
2023/08/01 02:18:07;;;;;;;1.07;0.93;;;24.10;99.10;;;;;;4938390;29;20447;-90
2023/08/01 02:20:34;;;;;;;1.10;0.90;;;24.00;99.10;;;;;;4937852;29;20458;-90
2023/08/01 02:23:01;;;;;;;1.00;0.70;;;24.10;99.20;;;;;;4938000;29;21029;-90
2023/08/01 02:25:27;;;;;;;1.10;1.00;;;24.00;99.10;;;;;;4938161;29;20474;-91
2023/08/01 02:27:54;;;;;;;1.10;0.90;;;24.10;99.30;;;;;;4938137;29;20450;-90
2023/08/01 02:30:22;;;;;;;1.10;0.87;;;24.00;99.10;;;;;;4937895;29;20541;-90
2023/08/01 02:32:49;;;;;;;1.10;0.90;;;24.00;99.10;;;;;;4938131;29;20448;-90
2023/08/01 02:35:16;;;;;;;1.10;0.90;;;24.00;99.10;;;;;;4937567;29;20467;-89
2023/08/01 02:37:43;;;;;;;1.93;0.90;;;24.00;99.00;;;;;;4937623;29;20777;-90
2023/08/01 02:40:11;;;;;;;1.10;1.00;;;24.00;99.10;;;;;;4937707;29;20531;-90
2023/08/01 02:42:37;;;;;;;1.20;0.87;;;24.00;99.10;;;;;;4937570;29;20448;-90
2023/08/01 02:45:05;;;;;;;1.17;0.97;;;24.00;99.10;;;;;;4937770;29;20849;-90
2023/08/01 02:47:33;;;;;;;1.50;0.90;;;24.00;99.10;;;;;;4937481;29;20535;-90
2023/08/01 02:50:00;;;;;;;1.00;0.77;;;24.00;99.10;;;;;;4937840;29;20449;-90
2023/08/01 02:52:27;;;;;;;1.00;0.90;;;24.10;99.30;;;;;;4937166;29;20489;-90
2023/08/01 02:54:54;;;;;;;1.23;0.97;;;24.00;99.10;;;;;;4937337;29;20456;-91
2023/08/01 02:57:21;;;;;;;1.10;0.90;;;24.00;99.20;;;;;;4937186;29;20459;-90
2023/08/01 02:59:48;;;;;;;1.20;1.10;;;24.00;99.10;;;;;;4937338;29;20454;-91
2023/08/01 03:02:15;;;;;;;1.20;1.10;;;24.00;99.10;;;;;;4937640;29;20819;-90
2023/08/01 03:04:43;;;;;;;1.30;1.03;;;24.00;99.10;;;;;;4937243;29;20505;-90
2023/08/01 03:07:10;;;;;;;1.20;1.10;;;24.00;99.10;;;;;;4937082;29;20906;-90
2023/08/01 03:09:36;;;;;;;1.10;0.97;;;24.00;99.10;;;;;;4937150;29;20639;-90
2023/08/01 03:12:04;;;;;;;1.40;1.17;;;24.00;99.10;;;;;;4936839;29;20459;-90
2023/08/01 03:14:32;;;;;;;1.17;1.07;;;24.00;99.10;;;;;;4937235;29;20448;-90
2023/08/01 03:16:58;;;;;;;1.30;1.20;;;24.00;99.10;;;;;;4937214;29;20447;-90
2023/08/01 03:19:25;;;;;;;1.20;1.00;;;24.00;99.50;;;;;;4936350;29;20454;-90
2023/08/01 03:21:53;;;;;;;1.10;1.00;;;24.00;99.10;;;;;;4937189;29;20461;-90
2023/08/01 03:24:20;;;;;;;1.00;0.80;;;24.00;99.10;;;;;;4937106;29;20484;-90
2023/08/01 03:26:47;;;;;;;1.10;1.00;;;24.00;99.10;;;;;;4936695;29;20451;-90
2023/08/01 03:29:14;;;;;;;2.23;1.00;;;24.00;99.00;;;;;;4937006;29;20804;-90
2023/08/01 03:31:40;;;;;;;1.50;1.40;;;24.00;99.00;;;;;;4937020;29;20542;-90
2023/08/01 03:34:08;;;;;;;1.50;1.40;;;24.00;99.00;;;;;;4936642;29;20454;-90
2023/08/01 03:36:35;;;;;;;1.30;1.20;;;24.00;99.00;;;;;;4936640;29;20566;-90
2023/08/01 03:39:04;;;;;;;1.40;1.10;;;24.00;99.00;;;;;;4936675;29;20452;-90
2023/08/01 03:41:32;;;;;;;1.13;1.03;;;24.00;99.10;;;;;;4936779;29;21007;-90
2023/08/01 03:44:00;;;;;;;1.10;1.00;;;24.00;99.10;;;;;;4937227;29;21011;-90
2023/08/01 03:46:26;;;;;;;1.30;1.20;;;24.00;99.10;;;;;;4937098;29;20510;-91
2023/08/01 03:48:53;;;;;;;1.37;1.27;;;24.00;99.20;;;;;;4936745;29;20483;-90
2023/08/01 03:51:20;;;;;;;1.20;1.10;;;24.00;99.10;;;;;;4936393;29;20451;-90
2023/08/01 03:53:47;;;;;;;1.30;1.20;;;24.00;99.10;;;;;;4917496;29;20547;-90
2023/08/01 03:56:15;;;;;;;1.60;1.20;;;24.00;99.10;;;;;;4917233;29;20457;-89
2023/08/01 03:58:42;;;;;;;1.17;1.07;;;24.00;99.10;;;;;;4917348;29;20453;-89
2023/08/01 04:01:09;;;;;;;1.60;1.20;;;24.00;99.10;;;;;;4917259;29;20957;-89
2023/08/01 04:03:36;;;;;;;1.47;1.37;;;24.00;99.10;;;;;;4917263;29;20492;-89
2023/08/01 04:06:18;;;;;;;1.13;1.00;;;24.00;99.10;;;;;;4912332;29;20478;-90
2023/08/01 04:08:47;;;;;;;1.30;1.13;;;24.00;99.10;;;;;;4936446;29;20468;-89
2023/08/01 04:11:49;;;;;;;1.70;1.30;;;24.00;99.20;;;;;;4920322;29;20448;-90
2023/08/01 04:14:16;;;;;;;1.30;1.10;;;24.00;99.20;;;;;;4924624;29;20440;-90
2023/08/01 04:16:42;;;;;;;1.30;1.17;;;24.00;99.20;;;;;;4928204;29;20440;-90
2023/08/01 04:19:09;;;;;;;1.50;1.20;;;24.00;99.30;;;;;;4936455;29;20946;-91
2023/08/01 04:21:36;;;;;;;1.30;1.20;;;24.00;99.10;;;;;;4936335;29;20438;-90
2023/08/01 04:24:03;;;;;;;2.13;1.47;;;24.00;99.10;;;;;;4935912;29;20495;-90
2023/08/01 04:26:30;;;;;;;1.40;1.30;;;24.00;99.20;;;;;;4935990;29;20456;-89
2023/08/01 04:28:58;;;;;;;1.17;1.03;;;24.00;99.70;;;;;;4927227;29;20798;-90
2023/08/01 04:31:25;;;;;;;1.23;1.13;;;24.00;99.30;;;;;;4918257;29;20446;-89
2023/08/01 04:33:52;;;;;;;1.27;1.17;;;24.00;99.10;;;;;;4921048;29;20478;-89
2023/08/01 04:36:18;;;;;;;1.67;1.10;;;24.00;99.20;;;;;;4920765;29;20469;-89
2023/08/01 04:38:45;;;;;;;2.50;1.40;;;24.00;99.10;;;;;;4920991;29;21025;-89
2023/08/01 04:41:12;;;;;;;2.63;1.50;;;24.00;99.10;;;;;;4920871;29;20474;-93
2023/08/01 04:43:39;;;;;;;1.27;1.17;;;24.00;99.20;;;;;;4920674;29;20447;-91
2023/08/01 04:46:07;;;;;;;1.60;1.10;;;24.00;99.10;;;;;;4920707;29;20469;-91
2023/08/01 04:48:34;;;;;;;1.50;1.33;;;24.00;99.00;;;;;;4920943;29;20443;-93
2023/08/01 04:51:00;;;;;;;1.60;1.10;;;24.00;99.10;;;;;;4920739;29;20449;-93
2023/08/01 04:53:27;;;;;;;2.33;1.27;;;24.00;99.00;;;;;;4937129;29;20565;-93
2023/08/01 04:55:54;;;;;;;1.40;1.20;;;24.00;99.00;;;;;;4939715;29;20853;-92
2023/08/01 04:58:21;;;;;;;1.20;1.10;;;24.00;98.90;;;;;;4939758;29;20540;-92
2023/08/01 05:00:48;;;;;;;1.30;1.10;;;24.00;99.00;;;;;;4939748;29;20454;-93
2023/08/01 05:03:16;;;;;;;1.80;1.33;;;24.10;99.10;;;;;;4939873;29;20450;-93
2023/08/01 05:05:43;;;;;;;1.50;1.40;;;24.00;99.10;;;;;;4939756;29;20856;-92
2023/08/01 05:08:09;;;;;;;1.10;1.00;;;24.00;99.20;;;;;;4939504;29;20457;-93
2023/08/01 05:10:36;;;;;;;1.40;1.30;;;24.00;99.30;;;;;;4939610;29;20479;-93
2023/08/01 05:13:03;;;;;;;1.20;1.00;;;24.00;99.30;;;;;;4939654;29;20527;-92
2023/08/01 05:15:30;;;;;;;1.40;1.30;;;24.10;99.30;;;;;;4939530;29;20448;-92
2023/08/01 05:17:57;;;;;;;1.50;1.27;;;24.00;99.30;;;;;;4939500;29;20530;-92
2023/08/01 05:20:30;;;;;;;1.50;1.30;;;24.10;99.30;;;;;;4939327;29;20538;-92
2023/08/01 05:22:57;;;;;;;1.20;1.10;;;24.00;99.30;;;;;;4939071;29;20942;-92
2023/08/01 05:25:24;;;;;;;1.30;1.20;;;24.00;99.30;;;;;;4939387;29;20839;-92
2023/08/01 05:27:51;;;;;;;1.47;1.37;;;24.00;99.30;;;;;;4939323;29;20444;-93
2023/08/01 05:30:17;;;;;;;3.43;1.40;;;24.10;99.30;;;;;;4940028;29;20455;-93
2023/08/01 05:32:45;;;;;;;1.30;1.20;;;24.00;99.30;;;;;;4938997;29;20543;-93
2023/08/01 05:35:15;;;;;;;1.67;1.57;;;24.00;99.30;;;;;;4939275;29;20463;-93
2023/08/01 05:37:43;;;;;;;1.50;1.23;;;24.10;99.30;;;;;;4938899;29;20533;-92
2023/08/01 05:40:11;;;;;;;1.40;1.30;;;24.10;99.40;;;;;;4939085;29;20900;-92
2023/08/01 05:42:38;;;;;;;1.30;1.20;;;24.10;99.20;;;;;;4938247;29;20534;-93
2023/08/01 05:45:06;;;;;;;1.57;1.47;;;24.10;99.20;;;;;;4938693;29;20487;-94
2023/08/01 05:47:33;;;;;;;1.63;1.53;;;24.10;99.20;;;;;;4938863;29;20450;-93
2023/08/01 05:49:59;;;;;;;1.60;1.50;;;24.00;99.10;;;;;;4938760;29;20451;-94
2023/08/01 05:52:26;;;;;;;1.87;1.37;;;24.10;99.60;;;;;;4937953;29;20481;-90
2023/08/01 05:54:53;;;;;;;2.47;2.27;;;24.10;99.80;;;;;;4938300;29;20451;-88
2023/08/01 05:57:20;;;;;;;1.60;1.50;;;24.00;99.20;;;;;;4938208;29;20474;-86
2023/08/01 05:59:47;;;;;;;1.63;1.50;;;24.00;99.00;;;;;;4938012;29;20460;-85
2023/08/01 06:02:14;;;;;;;1.97;1.60;;;24.00;99.00;;;;;;4937808;29;20451;-85
2023/08/01 06:04:41;;;;;;;5.83;2.07;;;24.00;99.00;;;;;;4937937;29;20474;-86
2023/08/01 06:07:07;;;;;;;2.10;2.00;;;24.00;99.00;;;;;;4938407;29;20446;-92
2023/08/01 06:09:34;;;;;;;2.80;1.73;;;24.00;99.00;;;;;;4938272;29;20567;-92
2023/08/01 06:12:02;;;;;;;2.50;1.60;;;24.00;98.80;;;;;;4938031;29;20538;-91
2023/08/01 06:14:29;;;;;;;2.40;1.87;;;24.00;98.80;;;;;;4938608;29;20460;-92
2023/08/01 06:16:56;;;;;;;1.87;1.67;;;24.00;98.60;;;;;;4937969;29;20479;-91
2023/08/01 06:19:23;;;;;;;2.30;2.10;;;24.00;98.40;;;;;;4938109;29;20479;-91
2023/08/01 06:21:50;;;;;;;1.73;1.63;;;24.00;98.70;;;;;;4938999;29;20571;-89
2023/08/01 06:24:17;;;;;;;2.40;1.80;;;24.00;98.60;;;;;;4937716;29;20932;-89
2023/08/01 06:26:43;;;;;;;2.07;1.87;;;24.00;98.50;;;;;;4938108;29;20443;-88
2023/08/01 06:29:11;;;;;;;2.47;1.83;;;24.00;98.50;;;;;;4937543;29;20444;-89
2023/08/01 06:31:38;;;;;;;2.20;2.00;;;24.00;98.90;;;;;;4938034;29;20546;-89
2023/08/01 06:34:05;;;;;;;2.00;1.80;;;24.00;98.60;;;;;;4937506;29;20803;-89
2023/08/01 06:36:32;;;;;;;1.63;1.53;;;24.00;98.60;;;;;;4937878;29;20546;-88
2023/08/01 06:38:59;;;;;;;2.00;1.80;;;24.00;98.70;;;;;;4937458;29;20981;-89
2023/08/01 06:41:26;;;;;;;2.20;1.80;;;24.00;98.50;;;;;;4937368;29;20454;-88
2023/08/01 06:43:52;;;;;;;2.40;2.20;;;24.00;98.60;;;;;;4937447;29;20446;-89
2023/08/01 06:46:20;;;;;;;1.93;1.60;;;24.10;98.70;;;;;;4937567;29;20496;-94
2023/08/01 06:48:47;;;;;;;1.60;1.50;;;24.00;98.50;;;;;;4939150;29;20479;-91
2023/08/01 06:51:14;;;;;;;2.27;2.07;;;24.00;98.50;;;;;;4939167;29;20447;-95
2023/08/01 06:53:41;;;;;;;2.90;2.07;;;24.00;98.50;;;;;;4936770;29;20554;-92
2023/08/01 06:56:08;;;;;;;2.00;1.90;;;24.00;98.60;;;;;;4938289;29;20534;-91
2023/08/01 06:58:34;;;;;;;2.03;1.83;;;24.00;98.50;;;;;;4938235;29;20452;-92
2023/08/01 07:01:01;;;;;;;2.13;2.03;;;24.00;99.00;;;;;;4938614;29;20452;-92
2023/08/01 07:03:29;;;;;;;2.40;2.30;;;24.00;98.50;;;;;;4939268;29;20454;-89
2023/08/01 07:05:56;;;;;;;7.00;5.67;;;24.00;98.60;;;;;;4938324;29;20490;-89
2023/08/01 07:08:23;;;;;;;8.70;5.80;;;24.00;98.30;;;;;;4938660;29;20453;-89
2023/08/01 07:10:50;;;;;;;7.13;6.30;;;24.10;98.30;;;;;;4937438;29;20541;-89
2023/08/01 07:13:19;;;;;;;6.60;6.00;;;24.00;98.50;;;;;;4937350;29;20498;-95
2023/08/01 07:15:46;;;;;;;8.33;7.40;;;24.00;98.50;;;;;;4937379;29;20522;-89
2023/08/01 07:18:13;;;;;;;7.13;6.30;;;23.90;98.30;;;;;;4937202;29;20965;-87
2023/08/01 07:24:55;;;;;;;6.77;4.40;;;23.90;98.40;;;;;;4952278;29;20504;-89
2023/08/01 07:27:22;;;;;;;6.13;3.73;;;23.80;98.40;;;;;;4937172;29;20451;-89
2023/08/01 07:29:49;;;;;;;7.30;4.10;;;23.80;98.50;;;;;;4937010;29;20959;-89
2023/08/01 07:32:16;;;;;;;4.27;3.87;;;23.80;98.50;;;;;;4937034;29;20451;-87
2023/08/01 07:34:43;;;;;;;3.87;3.57;;;23.90;98.40;;;;;;4937129;29;20951;-85
2023/08/01 07:37:10;;;;;;;4.63;4.33;;;23.90;98.50;;;;;;4937290;29;20948;-85
2023/08/01 07:39:36;;;;;;;6.97;6.27;;;24.00;98.50;;;;;;4936951;29;20760;-85
2023/08/01 07:42:05;;;;;;;6.17;5.60;;;24.00;98.50;;;;;;4936958;29;20455;-85
2023/08/01 07:44:32;;;;;;;7.40;6.40;;;24.00;98.40;;;;;;4936797;29;20445;-85
2023/08/01 07:46:59;;;;;;;8.10;6.33;;;24.10;98.50;;;;;;4937010;29;20435;-85
2023/08/01 07:49:25;;;;;;;5.80;5.40;;;24.00;98.40;;;;;;4936925;29;20441;-87
2023/08/01 07:51:52;;;;;;;5.47;4.77;;;24.00;98.50;;;;;;4936774;29;20441;-85
2023/08/01 07:54:19;;;;;;;5.20;4.53;;;24.00;98.50;;;;;;4936764;29;20442;-87
2023/08/01 07:56:48;;;;;;;5.60;4.67;;;24.00;98.50;;;;;;4936459;29;20444;-91
2023/08/01 07:59:16;;;;;;;5.80;5.30;;;24.00;98.40;;;;;;4936790;29;20450;-84
2023/08/01 08:01:43;;;;;;;5.57;4.37;;;24.00;98.40;;;;;;4936737;29;20444;-84
2023/08/01 08:04:10;;;;;;;9.83;4.67;;;24.00;98.40;;;;;;4936385;29;20452;-89
2023/08/01 08:06:37;;;;;;;5.27;4.87;;;24.10;98.50;;;;;;4936307;29;20836;-83
2023/08/01 08:09:04;;;;;;;4.50;3.57;;;24.10;98.40;;;;;;4936456;29;20448;-83
2023/08/01 08:11:30;;;;;;;4.70;4.00;;;24.10;98.50;;;;;;4936363;29;20570;-84
2023/08/01 08:13:57;;;;;;;8.93;4.30;;;24.10;98.40;;;;;;4936603;29;20446;-84
2023/08/01 08:16:26;;;;;;;4.13;3.80;;;24.10;98.40;;;;;;4936720;29;20931;-87
2023/08/01 08:18:52;;;;;;;3.67;3.37;;;24.10;98.40;;;;;;4936587;29;20517;-89
2023/08/01 08:21:19;;;;;;;3.70;3.40;;;24.10;98.40;;;;;;4936500;29;20448;-84
2023/08/01 08:23:46;;;;;;;4.23;3.83;;;24.10;98.40;;;;;;4936207;29;20455;-85
2023/08/01 08:26:13;;;;;;;3.67;3.40;;;24.10;98.50;;;;;;4946494;29;20509;-83
2023/08/01 08:28:41;;;;;;;4.50;4.10;;;24.10;98.40;;;;;;4955512;29;20547;-83
2023/08/01 08:31:08;;;;;;;3.80;3.50;;;24.10;98.40;;;;;;4955320;29;20930;-85
2023/08/01 08:33:36;;;;;;;5.20;3.37;;;24.10;98.40;;;;;;4955301;29;20975;-86
2023/08/01 08:36:03;;;;;;;4.67;3.97;;;24.00;98.40;;;;;;4955625;29;20473;-87
2023/08/01 08:38:30;;;;;;;3.57;3.30;;;24.10;98.40;;;;;;4955215;29;20452;-85
2023/08/01 08:41:08;;;;;;;3.90;3.60;;;24.10;98.40;;;;;;4955553;29;20453;-87
2023/08/01 08:43:35;;;;;;;3.60;3.30;;;24.10;98.40;;;;;;4955708;29;20893;-89
2023/08/01 08:46:03;;;;;;;3.80;3.13;;;24.10;98.40;;;;;;4938041;29;20498;-88
2023/08/01 08:48:31;;;;;;;3.77;3.40;;;24.10;98.50;;;;;;4955241;29;20449;-87
2023/08/01 08:51:03;;;;;;;4.27;3.90;;;24.10;98.30;;;;;;4955432;29;20497;-87
2023/08/01 08:53:32;;;;;;;3.70;3.40;;;24.10;98.60;;;;;;4955239;29;20922;-87
2023/08/01 08:56:00;;;;;;;3.73;3.43;;;24.10;98.40;;;;;;4955394;29;20498;-84
2023/08/01 08:58:27;;;;;;;3.47;3.17;;;24.10;98.30;;;;;;4937897;29;20450;-88
2023/08/01 09:00:54;;;;;;;3.83;3.53;;;24.10;98.20;;;;;;4955186;29;20446;-87
2023/08/01 09:03:21;;;;;;;3.37;3.07;;;24.20;98.20;;;;;;4955329;29;20453;-86
2023/08/01 09:05:51;;;;;;;3.20;2.97;;;24.20;98.30;;;;;;4955248;29;20587;-84
2023/08/01 09:08:21;;;;;;;4.60;3.00;;;24.20;98.20;;;;;;4955322;29;20822;-84
2023/08/01 09:10:48;;;;;;;3.53;3.17;;;24.30;98.40;;;;;;4955489;29;20458;-86
2023/08/01 09:13:15;;;;;;;3.80;3.50;;;24.20;98.30;;;;;;4955271;29;20532;-89
2023/08/01 09:15:43;;;;;;;3.50;3.20;;;24.20;98.70;;;;;;4955950;29;20445;-88
2023/08/01 09:18:10;;;;;;;3.47;3.00;;;24.20;98.10;;;;;;4957460;28;20841;-89
2023/08/01 09:20:48;;;;;;;3.30;3.10;;;24.20;98.20;;;;;;4958703;29;20458;-89
2023/08/01 09:23:16;;;;;;;2.70;2.50;;;24.20;98.20;;;;;;4958708;29;20448;-87
2023/08/01 09:25:45;;;;;;;3.07;2.87;;;24.20;98.10;;;;;;4958314;29;20583;-86
2023/08/01 09:28:20;;;;;;;6.80;3.20;;;24.30;98.10;;;;;;4958503;29;20461;-87
2023/08/01 09:30:48;;;;;;;6.03;2.93;;;24.30;98.20;;;;;;4958614;29;20447;-88
2023/08/01 09:33:15;;;;;;;2.93;2.73;;;24.30;98.20;;;;;;4958594;29;20438;-85
2023/08/01 09:35:44;;;;;;;6.23;4.40;;;24.30;98.30;;;;;;4958551;29;20799;-87
2023/08/01 09:38:11;;;;;;;3.73;3.40;;;24.30;98.30;;;;;;4958365;29;20481;-86
2023/08/01 09:40:38;;;;;;;3.47;3.20;;;24.40;98.50;;;;;;4958989;29;20781;-90
2023/08/01 09:43:08;;;;;;;3.67;3.37;;;24.20;98.50;;;;;;4958496;29;20449;-88
2023/08/01 09:45:35;;;;;;;3.40;3.20;;;24.20;98.60;;;;;;4957989;29;20973;-89
2023/08/01 09:48:02;;;;;;;2.60;2.40;;;24.20;98.50;;;;;;4957966;29;20439;-86
2023/08/01 09:50:29;;;;;;;3.70;3.40;;;24.30;98.50;;;;;;4958368;29;20445;-92
2023/08/01 09:52:56;;;;;;;3.17;2.97;;;24.20;98.30;;;;;;4941162;29;20449;-92
2023/08/01 09:55:31;;;;;;;3.13;2.93;;;24.20;98.40;;;;;;4958326;29;20507;-90
2023/08/01 09:57:59;;;;;;;3.60;3.30;;;24.20;98.50;;;;;;4941075;29;20442;-89
2023/08/01 10:00:29;;;;;;;3.77;3.47;;;24.20;98.40;;;;;;4940943;29;20461;-90
2023/08/01 10:02:59;;;;;;;3.10;2.90;;;24.30;98.50;;;;;;4941287;29;20484;-89
2023/08/01 10:08:49;;;;;;;3.43;3.13;;;24.30;98.40;;;;;;4957981;29;20929;-90
2023/08/01 10:11:18;;;;;;;4.00;3.03;;;24.30;98.60;;;;;;4957969;29;20851;-91
2023/08/01 10:13:46;;;;;;;3.20;2.90;;;24.40;98.60;;;;;;4940909;29;20443;-91
2023/08/01 10:16:15;;;;;;;3.67;3.37;;;24.40;98.50;;;;;;4958012;29;20458;-91
2023/08/01 10:18:43;;;;;;;3.00;2.73;;;24.40;98.50;;;;;;4958024;29;21008;-91
2023/08/01 10:21:13;;;;;;;3.30;3.00;;;24.50;98.50;;;;;;4957786;29;20449;-90
2023/08/01 10:23:41;;;;;;;2.70;2.50;;;24.40;98.40;;;;;;4957904;29;20441;-92
2023/08/01 10:26:10;;;;;;;2.83;2.63;;;24.50;98.50;;;;;;4940418;29;20501;-92
2023/08/01 10:28:39;;;;;;;4.40;3.00;;;24.40;98.90;;;;;;4957417;28;20956;-90
2023/08/01 10:31:10;;;;;;;4.07;3.03;;;24.40;98.50;;;;;;4940541;29;20448;-92
2023/08/01 10:33:39;;;;;;;3.20;2.83;;;24.40;98.50;;;;;;4957715;29;20501;-92
2023/08/01 10:36:17;;;;;;;3.00;2.80;;;24.40;98.60;;;;;;4957238;29;20446;-89
2023/08/01 10:38:49;;;;;;;3.60;3.37;;;24.40;98.70;;;;;;4940228;29;20447;-92
2023/08/01 10:41:20;;;;;;;3.13;2.90;;;24.40;98.70;;;;;;4940368;29;20460;-92
2023/08/01 10:43:47;;;;;;;2.90;2.70;;;24.40;98.60;;;;;;4957547;29;20443;-89
2023/08/01 10:46:14;;;;;;;2.63;2.43;;;24.40;98.50;;;;;;4957358;29;20501;-90
2023/08/01 10:48:51;;;;;;;3.03;2.83;;;24.50;98.60;;;;;;4957381;29;20453;-90
2023/08/01 10:51:18;;;;;;;3.10;2.90;;;24.40;98.50;;;;;;4940210;29;20450;-92
2023/08/01 10:53:46;;;;;;;4.00;2.57;;;24.40;98.50;;;;;;4957668;29;20495;-92
2023/08/01 10:56:21;;;;;;;2.67;2.50;;;24.40;98.50;;;;;;4957561;29;20460;-91
2023/08/01 10:58:48;;;;;;;4.00;3.23;;;24.40;98.50;;;;;;4957289;29;20797;-92
2023/08/01 11:01:15;;;;;;;2.60;2.40;;;24.40;98.50;;;;;;4957315;29;20450;-92
2023/08/01 11:03:44;;;;;;;3.87;2.53;;;24.40;98.70;;;;;;4940223;29;20930;-92
2023/08/01 11:06:12;;;;;;;2.70;2.50;;;24.40;98.60;;;;;;4957065;29;20573;-91
2023/08/01 11:08:40;;;;;;;2.83;2.63;;;24.40;98.60;;;;;;4957161;29;20448;-92
2023/08/01 11:11:09;;;;;;;2.23;2.13;;;24.40;98.60;;;;;;4957041;29;20488;-92
2023/08/01 11:13:35;;;;;;;2.77;2.57;;;24.40;98.60;;;;;;4956887;29;20938;-92
2023/08/01 11:16:04;;;;;;;3.03;2.83;;;24.40;98.50;;;;;;4957255;29;20450;-93
2023/08/01 11:18:31;;;;;;;2.40;2.30;;;24.40;98.60;;;;;;4956702;29;20530;-92
2023/08/01 11:20:58;;;;;;;2.60;2.40;;;24.40;98.60;;;;;;4957041;29;20448;-93
2023/08/01 11:23:30;;;;;;;2.77;2.57;;;24.50;98.80;;;;;;4956775;29;20976;-93
2023/08/01 11:25:57;;;;;;;2.77;2.57;;;24.40;98.90;;;;;;4936452;29;20499;-93
2023/08/01 11:28:24;;;;;;;2.50;2.30;;;24.40;98.90;;;;;;4937825;29;20459;-91
2023/08/01 11:30:51;;;;;;;2.87;2.60;;;24.50;98.90;;;;;;4937830;29;20448;-92
2023/08/01 11:33:21;;;;;;;2.60;2.40;;;24.40;98.90;;;;;;4937815;29;20474;-92
2023/08/01 11:35:52;;;;;;;3.97;2.90;;;24.60;98.90;;;;;;4937708;29;20448;-92
2023/08/01 11:38:18;;;;;;;3.00;2.80;;;24.40;98.80;;;;;;4937701;29;20440;-92
2023/08/01 11:40:49;;;;;;;2.30;2.10;;;24.60;98.90;;;;;;4937256;29;20452;-93
2023/08/01 11:43:16;;;;;;;2.50;2.30;;;24.50;98.90;;;;;;4936676;29;20431;-92
2023/08/01 11:45:52;;;;;;;2.63;2.30;;;24.50;98.90;;;;;;4937576;29;20443;-93
2023/08/01 11:48:19;;;;;;;2.77;2.57;;;24.50;98.90;;;;;;4937416;29;20450;-92
2023/08/01 11:50:46;;;;;;;5.03;2.40;;;24.50;98.90;;;;;;4937375;29;20451;-92
2023/08/01 11:53:21;;;;;;;2.43;2.23;;;24.50;98.90;;;;;;4937395;29;20852;-93
2023/08/01 11:55:52;;;;;;;2.67;2.47;;;24.50;98.90;;;;;;4939602;29;20449;-93
2023/08/01 11:58:29;;;;;;;2.83;2.63;;;24.50;98.80;;;;;;4956393;29;20439;-92
2023/08/01 12:01:03;;;;;;;2.80;2.60;;;24.50;98.80;;;;;;4956506;29;20445;-92
2023/08/01 12:03:30;;;;;;;2.77;2.57;;;24.50;98.70;;;;;;4956506;29;20463;-92
2023/08/01 12:06:04;;;;;;;2.43;2.20;;;24.50;99.10;;;;;;4938855;29;20466;-92
2023/08/01 12:08:33;;;;;;;2.70;2.50;;;24.70;98.80;;;;;;4956506;29;20439;-92
2023/08/01 12:11:02;;;;;;;2.33;2.23;;;24.50;98.70;;;;;;4956494;29;20476;-93
2023/08/01 12:13:30;;;;;;;2.93;2.73;;;24.50;98.70;;;;;;4956083;29;20442;-91
2023/08/01 12:15:58;;;;;;;2.40;2.27;;;24.50;98.70;;;;;;4956284;29;20545;-92
2023/08/01 12:18:26;;;;;;;2.80;2.50;;;24.50;98.60;;;;;;4956112;29;20435;-92
2023/08/01 12:20:54;;;;;;;1.90;1.80;;;24.50;98.70;;;;;;4956348;29;20953;-92
2023/08/01 12:23:21;;;;;;;2.60;2.40;;;24.60;98.70;;;;;;4956142;29;20451;-92
2023/08/01 12:25:48;;;;;;;3.30;2.27;;;24.70;98.80;;;;;;4956122;29;20501;-93
2023/08/01 12:28:16;;;;;;;3.03;2.83;;;24.60;98.60;;;;;;4956245;29;20578;-92
2023/08/01 12:30:44;;;;;;;3.00;2.80;;;24.60;98.70;;;;;;4956024;29;20538;-92
2023/08/01 12:33:11;;;;;;;2.37;2.17;;;24.60;98.60;;;;;;4956179;29;20442;-92
2023/08/01 12:35:41;;;;;;;2.40;2.20;;;24.60;98.60;;;;;;4956154;29;20447;-93
2023/08/01 12:38:08;;;;;;;2.60;2.40;;;24.60;98.70;;;;;;4939435;29;20444;-92
2023/08/01 12:40:35;;;;;;;2.47;2.30;;;24.60;98.60;;;;;;4956048;29;20442;-91
2023/08/01 12:43:02;;;;;;;2.40;2.20;;;24.60;98.40;;;;;;4955886;29;20546;-93
2023/08/01 12:45:30;;;;;;;2.20;2.10;;;24.80;98.60;;;;;;4955729;29;20453;-92
2023/08/01 12:47:57;;;;;;;3.20;2.00;;;24.80;98.80;;;;;;4939201;29;20504;-92
2023/08/01 12:50:24;;;;;;;1.93;1.80;;;24.60;98.60;;;;;;4955877;29;20451;-93
2023/08/01 12:52:51;;;;;;;1.93;1.83;;;24.60;98.60;;;;;;4957795;28;20448;-91
2023/08/01 12:55:18;;;;;;;2.03;1.93;;;24.60;98.70;;;;;;4959382;29;20453;-92
2023/08/01 12:57:45;;;;;;;2.60;2.40;;;24.60;98.70;;;;;;4959678;29;20464;-92